createdAt,value
2023-07-09T00:02:04.634Z,83.53
2023-07-09T00:04:31.698Z,84.02
2023-07-09T00:07:02.011Z,84.13
2023-07-09T00:09:28.945Z,84.36
2023-07-09T00:11:55.969Z,84.28
2023-07-09T00:14:23.301Z,83.59
2023-07-09T00:16:50.686Z,84.39
2023-07-09T00:19:25.327Z,84.61
2023-07-09T00:21:55.809Z,84.74
2023-07-09T00:24:23.366Z,83.84
2023-07-09T00:26:50.392Z,83.60
2023-07-09T00:29:18.216Z,84.28
2023-07-09T00:31:45.430Z,83.64
2023-07-09T00:34:14.410Z,83.88
2023-07-09T00:36:45.378Z,84.12
2023-07-09T00:39:19.835Z,83.89
2023-07-09T00:41:49.464Z,84.46
2023-07-09T00:44:22.781Z,83.82
2023-07-09T00:46:49.592Z,83.68
2023-07-09T00:49:38.097Z,84.27
2023-07-09T00:52:21.013Z,84.22
2023-07-09T00:54:48.187Z,84.08
2023-07-09T00:57:19.261Z,83.89
2023-07-09T01:00:08.502Z,84.63
2023-07-09T01:02:35.763Z,84.67
2023-07-09T01:05:03.194Z,84.37
2023-07-09T01:07:31.145Z,84.11
2023-07-09T01:09:58.121Z,83.88
2023-07-09T01:12:25.388Z,84.30
2023-07-09T01:14:54.720Z,84.73
2023-07-09T01:17:21.797Z,84.91
2023-07-09T01:19:52.147Z,84.02
2023-07-09T01:22:20.702Z,84.58
2023-07-09T01:24:52.793Z,84.85
2023-07-09T01:27:24.354Z,85.50
2023-07-09T01:29:51.395Z,85.95
2023-07-09T01:32:20.084Z,85.58
2023-07-09T01:34:54.107Z,85.65
2023-07-09T01:37:24.645Z,86.36
2023-07-09T01:39:52.390Z,86.95
2023-07-09T01:42:23.017Z,86.67
2023-07-09T01:44:51.606Z,86.32
2023-07-09T01:47:19.078Z,86.29
2023-07-09T01:49:49.177Z,86.84
2023-07-09T01:52:20.453Z,87.43
2023-07-09T01:54:51.439Z,87.56
2023-07-09T01:57:24.339Z,88.02
2023-07-09T01:59:56.252Z,88.32
2023-07-09T02:02:23.800Z,88.30
2023-07-09T02:04:52.858Z,88.98
2023-07-09T02:07:21.290Z,89.16
2023-07-09T02:09:48.587Z,89.59
2023-07-09T02:12:16.610Z,89.55
2023-07-09T02:14:44.727Z,90.43
2023-07-09T02:17:12.678Z,89.82
2023-07-09T02:19:39.884Z,89.68
2023-07-09T02:22:07.800Z,89.48
2023-07-09T02:24:34.973Z,89.49
2023-07-09T02:27:05.082Z,90.17
2023-07-09T02:29:33.181Z,89.88
2023-07-09T02:32:01.925Z,89.49
2023-07-09T02:34:30.405Z,89.20
2023-07-09T02:36:58.836Z,90.20
2023-07-09T02:39:25.719Z,90.67
2023-07-09T02:41:52.739Z,90.93
2023-07-09T02:44:19.673Z,91.43
2023-07-09T02:46:46.968Z,91.24
2023-07-09T02:49:15.256Z,92.29
2023-07-09T02:51:42.272Z,91.87
2023-07-09T02:54:09.552Z,92.39
2023-07-09T02:56:36.572Z,92.21
2023-07-09T02:59:03.611Z,92.76
2023-07-09T03:01:30.976Z,92.99
2023-07-09T03:04:01.125Z,93.00
2023-07-09T03:06:28.669Z,92.78
2023-07-09T03:08:55.550Z,92.55
2023-07-09T03:11:22.859Z,92.84
2023-07-09T03:13:50.027Z,93.03
2023-07-09T03:16:17.535Z,93.28
2023-07-09T03:18:44.480Z,92.75
2023-07-09T03:21:11.408Z,93.00
2023-07-09T03:23:38.590Z,92.43
2023-07-09T03:26:05.988Z,92.60
2023-07-09T03:28:34.047Z,92.84
2023-07-09T03:31:01.062Z,92.68
2023-07-09T03:33:28.143Z,92.91
2023-07-09T03:35:55.058Z,92.82
2023-07-09T03:38:22.108Z,93.04
2023-07-09T03:40:55.881Z,92.89
2023-07-09T03:43:23.581Z,93.15
2023-07-09T03:45:50.568Z,93.12
2023-07-09T03:48:19.213Z,92.96
2023-07-09T03:50:47.457Z,92.80
2023-07-09T03:53:15.037Z,93.43
2023-07-09T03:55:41.910Z,93.55
2023-07-09T03:58:09.035Z,93.03
2023-07-09T04:00:36.530Z,92.86
2023-07-09T04:03:03.505Z,93.06
2023-07-09T04:05:30.396Z,93.47
2023-07-09T04:07:57.328Z,93.72
2023-07-09T04:10:24.354Z,93.67
2023-07-09T04:12:51.778Z,93.68
2023-07-09T04:15:18.799Z,93.37
2023-07-09T04:17:45.831Z,93.35
2023-07-09T04:20:14.019Z,93.68
2023-07-09T04:22:41.407Z,93.66
2023-07-09T04:25:11.102Z,93.15
2023-07-09T04:27:38.853Z,92.30
2023-07-09T04:30:09.952Z,92.72
2023-07-09T04:32:37.763Z,92.90
2023-07-09T04:35:07.681Z,92.97
2023-07-09T04:37:34.672Z,93.08
2023-07-09T04:40:02.012Z,92.59
2023-07-09T04:42:28.983Z,92.61
2023-07-09T04:44:55.798Z,93.11
2023-07-09T04:47:22.681Z,93.03
2023-07-09T04:49:49.718Z,93.18
2023-07-09T04:52:16.815Z,93.64
2023-07-09T04:54:45.450Z,93.22
2023-07-09T04:57:13.292Z,92.94
2023-07-09T04:59:40.231Z,92.48
2023-07-09T05:02:07.640Z,92.51
2023-07-09T05:04:34.733Z,92.69
2023-07-09T05:07:01.669Z,93.03
2023-07-09T05:09:28.659Z,93.05
2023-07-09T05:11:55.699Z,93.02
2023-07-09T05:14:22.647Z,92.82
2023-07-09T05:16:50.021Z,92.98
2023-07-09T05:19:16.960Z,93.26
2023-07-09T05:21:43.839Z,92.95
2023-07-09T05:24:10.831Z,93.35
2023-07-09T05:26:37.989Z,93.13
2023-07-09T05:29:06.830Z,93.43
2023-07-09T05:31:34.239Z,93.65
2023-07-09T05:34:01.750Z,93.95
2023-07-09T05:36:29.526Z,93.53
2023-07-09T05:38:57.357Z,93.86
2023-07-09T05:41:24.635Z,93.62
2023-07-09T05:43:52.951Z,94.40
2023-07-09T05:46:21.004Z,94.84
2023-07-09T05:48:47.843Z,93.79
2023-07-09T05:51:14.751Z,94.03
2023-07-09T05:53:41.841Z,94.50
2023-07-09T05:56:09.184Z,94.56
2023-07-09T05:58:36.165Z,94.36
2023-07-09T06:01:03.606Z,95.00
2023-07-09T06:03:31.175Z,94.82
2023-07-09T06:05:59.697Z,95.04
2023-07-09T06:08:27.666Z,95.73
2023-07-09T06:11:03.219Z,95.77
2023-07-09T06:13:34.428Z,95.42
2023-07-09T06:16:02.595Z,95.36
2023-07-09T06:18:31.228Z,96.01
2023-07-09T06:21:00.242Z,96.38
2023-07-09T06:23:27.641Z,96.19
2023-07-09T06:25:55.199Z,96.17
2023-07-09T06:28:24.630Z,96.17
2023-07-09T06:30:51.786Z,96.99
2023-07-09T06:33:20.103Z,96.52
2023-07-09T06:35:55.581Z,96.85
2023-07-09T06:38:22.922Z,97.05
2023-07-09T06:40:50.093Z,97.11
2023-07-09T06:43:17.767Z,97.26
2023-07-09T06:45:56.737Z,98.03
2023-07-09T06:48:24.702Z,97.79
2023-07-09T06:50:52.938Z,97.79
2023-07-09T06:53:20.020Z,97.65
2023-07-09T06:55:47.157Z,97.73
2023-07-09T06:58:14.182Z,97.72
2023-07-09T07:00:41.510Z,97.52
2023-07-09T07:03:08.624Z,98.02
2023-07-09T07:05:35.737Z,97.51
2023-07-09T07:08:03.961Z,97.53
2023-07-09T07:10:31.373Z,97.70
2023-07-09T07:12:58.378Z,97.75
2023-07-09T07:15:25.442Z,97.15
2023-07-09T07:17:52.542Z,96.96
2023-07-09T07:20:19.781Z,96.73
2023-07-09T07:22:47.258Z,96.37
2023-07-09T07:25:14.466Z,96.00
2023-07-09T07:27:41.456Z,95.40
2023-07-09T07:30:12.042Z,94.96
2023-07-09T07:32:40.406Z,94.93
2023-07-09T07:35:07.849Z,93.96
2023-07-09T07:37:34.899Z,93.87
2023-07-09T07:40:02.089Z,92.93
2023-07-09T07:42:29.135Z,92.57
2023-07-09T07:44:56.072Z,92.70
2023-07-09T07:47:23.057Z,91.87
2023-07-09T07:49:50.190Z,92.08
2023-07-09T07:52:17.099Z,90.80
2023-07-09T07:54:44.016Z,89.63
2023-07-09T07:57:11.951Z,89.44
2023-07-09T07:59:39.440Z,88.91
2023-07-09T08:02:08.180Z,89.09
2023-07-09T08:04:35.237Z,88.76
2023-07-09T08:07:02.150Z,88.25
2023-07-09T08:09:29.239Z,88.22
2023-07-09T08:11:56.271Z,88.71
2023-07-09T08:14:23.782Z,88.27
2023-07-09T08:16:50.796Z,87.40
2023-07-09T08:19:20.593Z,86.74
2023-07-09T08:21:47.539Z,85.52
2023-07-09T08:24:15.930Z,85.81
2023-07-09T08:26:42.784Z,86.02
2023-07-09T08:29:09.700Z,86.71
2023-07-09T08:31:37.103Z,86.94
2023-07-09T08:34:07.480Z,86.72
2023-07-09T08:36:34.460Z,86.98
2023-07-09T08:39:04.883Z,86.71
2023-07-09T08:41:44.616Z,87.37
2023-07-09T08:44:11.480Z,87.40
2023-07-09T08:46:55.996Z,87.30
2023-07-09T08:49:35.207Z,86.08
2023-07-09T08:52:02.328Z,85.18
2023-07-09T08:54:33.532Z,84.98
2023-07-09T08:57:23.250Z,85.03
2023-07-09T08:59:52.955Z,86.09
2023-07-09T09:02:40.439Z,83.95
2023-07-09T09:05:07.772Z,83.35
2023-07-09T09:07:42.003Z,80.84
2023-07-09T09:10:16.421Z,82.00
2023-07-09T09:13:03.819Z,81.58
2023-07-09T09:15:31.524Z,80.87
2023-07-09T09:18:12.230Z,80.06
2023-07-09T09:20:39.503Z,79.70
2023-07-09T09:23:09.353Z,79.32
2023-07-09T09:25:39.237Z,79.41
2023-07-09T09:28:06.552Z,79.45
2023-07-09T09:30:33.485Z,78.89
2023-07-09T09:33:02.830Z,77.39
2023-07-09T09:35:33.570Z,75.41
2023-07-09T09:38:00.775Z,75.07
2023-07-09T09:40:30.018Z,75.13
2023-07-09T09:43:02.060Z,75.12
2023-07-09T09:45:34.729Z,75.77
2023-07-09T09:48:05.676Z,76.03
2023-07-09T09:50:34.151Z,78.03
2023-07-09T09:53:03.022Z,77.43
2023-07-09T09:55:31.686Z,75.67
2023-07-09T09:57:58.562Z,76.27
2023-07-09T10:00:28.881Z,75.12
2023-07-09T10:03:05.301Z,73.91
2023-07-09T10:05:46.039Z,72.94
2023-07-09T10:08:42.053Z,70.81
2023-07-09T10:11:29.488Z,71.54
2023-07-09T10:13:57.638Z,70.50
2023-07-09T10:16:37.607Z,70.55
2023-07-09T10:19:09.398Z,71.01
2023-07-09T10:21:52.648Z,68.17
2023-07-09T10:25:07.611Z,66.73
2023-07-09T10:27:45.232Z,67.74
2023-07-09T10:30:41.226Z,65.00
2023-07-09T10:33:15.439Z,65.54
2023-07-09T10:35:48.504Z,65.67
2023-07-09T10:38:41.118Z,66.40
2023-07-09T10:41:25.957Z,66.12
2023-07-09T10:43:55.010Z,66.69
2023-07-09T10:46:26.084Z,65.40
2023-07-09T10:48:54.750Z,65.17
2023-07-09T10:51:28.458Z,65.52
2023-07-09T10:54:04.287Z,65.67
2023-07-09T10:56:37.272Z,64.85
2023-07-09T10:59:33.079Z,64.83
2023-07-09T11:02:14.016Z,65.03
2023-07-09T11:05:02.292Z,66.28
2023-07-09T11:07:35.509Z,67.36
2023-07-09T11:10:07.316Z,68.42
2023-07-09T11:12:38.289Z,67.18
2023-07-09T11:15:11.462Z,66.89
2023-07-09T11:17:41.909Z,66.89
2023-07-09T11:20:21.431Z,66.83
2023-07-09T11:22:56.529Z,67.41
2023-07-09T11:25:49.966Z,67.78
2023-07-09T11:28:16.941Z,67.41
2023-07-09T11:30:51.683Z,67.59
2023-07-09T11:33:25.529Z,67.65
2023-07-09T11:35:55.887Z,68.35
2023-07-09T11:38:24.716Z,68.31
2023-07-09T11:40:53.892Z,67.90
2023-07-09T11:43:33.853Z,68.51
2023-07-09T11:46:18.732Z,68.58
2023-07-09T11:48:46.517Z,68.70
2023-07-09T11:51:23.169Z,67.40
2023-07-09T11:53:53.694Z,67.47
2023-07-09T11:56:21.708Z,67.37
2023-07-09T11:58:57.162Z,67.23
2023-07-09T12:01:45.231Z,69.04
2023-07-09T12:04:19.484Z,69.92
2023-07-09T12:06:47.622Z,69.20
2023-07-09T12:09:18.768Z,68.28
2023-07-09T12:11:50.517Z,67.21
2023-07-09T12:14:20.296Z,67.80
2023-07-09T12:16:49.513Z,67.90
2023-07-09T12:19:18.897Z,68.16
2023-07-09T12:21:48.346Z,69.03
2023-07-09T12:24:26.416Z,67.95
2023-07-09T12:26:59.620Z,68.00
2023-07-09T12:29:46.714Z,66.78
2023-07-09T12:32:16.288Z,66.95
2023-07-09T12:34:43.473Z,67.63
2023-07-09T12:37:15.417Z,65.87
2023-07-09T12:39:42.351Z,65.29
2023-07-09T12:42:18.270Z,63.72
2023-07-09T12:44:47.222Z,63.73
2023-07-09T12:47:16.063Z,63.90
2023-07-09T12:49:45.471Z,64.20
2023-07-09T12:52:20.625Z,64.39
2023-07-09T12:54:57.561Z,65.08
2023-07-09T12:57:24.719Z,65.20
2023-07-09T12:59:51.624Z,64.85
2023-07-09T13:02:26.622Z,64.26
2023-07-09T13:05:04.043Z,63.76
2023-07-09T13:07:34.354Z,62.89
2023-07-09T13:10:07.906Z,63.13
2023-07-09T13:12:35.287Z,62.54
2023-07-09T13:15:02.237Z,62.88
2023-07-09T13:17:31.312Z,62.96
2023-07-09T13:19:58.430Z,63.02
2023-07-09T13:22:26.342Z,64.24
2023-07-09T13:24:53.394Z,64.11
2023-07-09T13:27:20.365Z,63.93
2023-07-09T13:29:47.904Z,64.10
2023-07-09T13:32:16.741Z,64.36
2023-07-09T13:34:44.054Z,64.61
2023-07-09T13:37:15.953Z,64.50
2023-07-09T13:39:44.182Z,64.54
2023-07-09T13:42:13.116Z,64.28
2023-07-09T13:44:40.370Z,63.73
2023-07-09T13:47:12.509Z,62.63
2023-07-09T13:49:39.387Z,62.23
2023-07-09T13:52:07.422Z,62.87
2023-07-09T13:54:38.894Z,62.42
2023-07-09T13:57:07.533Z,62.56
2023-07-09T13:59:34.566Z,61.58
2023-07-09T14:02:01.542Z,62.47
2023-07-09T14:04:29.460Z,63.52
2023-07-09T14:06:56.736Z,63.77
2023-07-09T14:09:23.617Z,63.85
2023-07-09T14:11:53.385Z,63.97
2023-07-09T14:14:22.426Z,63.72
2023-07-09T14:16:50.887Z,64.62
2023-07-09T14:19:20.047Z,64.73
2023-07-09T14:21:48.037Z,64.82
2023-07-09T14:24:24.138Z,64.01
2023-07-09T14:26:54.959Z,65.50
2023-07-09T14:29:22.482Z,66.46
2023-07-09T14:31:49.642Z,66.81
2023-07-09T14:34:25.397Z,66.99
2023-07-09T14:36:55.014Z,66.73
2023-07-09T14:39:22.661Z,66.32
2023-07-09T14:41:49.582Z,66.31
2023-07-09T14:44:24.314Z,66.56
2023-07-09T14:46:52.418Z,64.54
2023-07-09T14:49:20.230Z,63.01
2023-07-09T14:51:48.797Z,63.35
2023-07-09T14:54:30.384Z,64.26
2023-07-09T14:56:58.930Z,64.73
2023-07-09T14:59:26.480Z,65.04
2023-07-09T15:01:54.172Z,64.60
2023-07-09T15:04:34.697Z,64.41
2023-07-09T15:07:02.062Z,64.67
2023-07-09T15:09:29.936Z,64.64
2023-07-09T15:11:59.001Z,64.75
2023-07-09T15:14:27.059Z,64.49
2023-07-09T15:16:56.979Z,64.60
2023-07-09T15:19:26.418Z,65.42
2023-07-09T15:21:53.465Z,65.54
2023-07-09T15:24:26.677Z,66.11
2023-07-09T15:26:55.409Z,65.72
2023-07-09T15:29:23.054Z,65.34
2023-07-09T15:31:50.149Z,65.96
2023-07-09T15:34:17.294Z,65.65
2023-07-09T15:36:52.354Z,65.01
2023-07-09T15:39:20.488Z,64.16
2023-07-09T15:41:48.965Z,62.55
2023-07-09T15:44:17.245Z,62.02
2023-07-09T15:46:51.446Z,62.04
2023-07-09T15:49:18.334Z,61.93
2023-07-09T15:51:45.265Z,61.56
2023-07-09T15:54:22.764Z,62.63
2023-07-09T15:56:50.484Z,63.03
2023-07-09T15:59:43.841Z,63.42
2023-07-09T16:02:16.747Z,64.22
2023-07-09T16:04:45.380Z,64.40
2023-07-09T16:07:12.891Z,64.01
2023-07-09T16:09:40.558Z,62.85
2023-07-09T16:12:13.902Z,63.26
2023-07-09T16:14:41.395Z,62.79
2023-07-09T16:17:11.618Z,64.02
2023-07-09T16:19:38.498Z,64.07
2023-07-09T16:22:08.262Z,63.96
2023-07-09T16:24:37.988Z,64.25
2023-07-09T16:27:07.427Z,65.47
2023-07-09T16:29:35.721Z,64.58
2023-07-09T16:32:02.881Z,64.56
2023-07-09T16:34:32.330Z,64.58
2023-07-09T16:37:00.429Z,64.84
2023-07-09T16:39:34.042Z,64.88
2023-07-09T16:42:00.996Z,65.34
2023-07-09T16:44:28.222Z,66.04
2023-07-09T16:46:55.494Z,66.15
2023-07-09T16:49:28.372Z,66.26
2023-07-09T16:51:58.050Z,65.97
2023-07-09T16:54:25.394Z,66.15
2023-07-09T16:56:52.936Z,66.48
2023-07-09T16:59:19.829Z,67.08
2023-07-09T17:01:48.025Z,67.33
2023-07-09T17:04:32.190Z,67.66
2023-07-09T17:06:59.044Z,68.12
2023-07-09T17:09:25.967Z,68.17
2023-07-09T17:12:00.048Z,68.17
2023-07-09T17:14:27.239Z,68.54
2023-07-09T17:16:54.161Z,68.28
2023-07-09T17:19:21.142Z,68.48
2023-07-09T17:21:49.829Z,68.76
2023-07-09T17:24:23.906Z,69.19
2023-07-09T17:26:52.450Z,69.20
2023-07-09T17:29:19.957Z,68.96
2023-07-09T17:31:51.063Z,69.49
2023-07-09T17:34:20.694Z,69.74
2023-07-09T17:36:48.102Z,69.48
2023-07-09T17:39:23.321Z,70.04
2023-07-09T17:41:51.582Z,69.90
2023-07-09T17:44:20.250Z,69.80
2023-07-09T17:46:48.820Z,70.19
2023-07-09T17:49:27.160Z,70.14
2023-07-09T17:51:55.134Z,69.94
2023-07-09T17:54:23.922Z,69.96
2023-07-09T17:56:52.557Z,70.06
2023-07-09T17:59:22.266Z,69.87
2023-07-09T18:01:53.750Z,69.99
2023-07-09T18:06:52.151Z,69.86
2023-07-09T18:09:20.562Z,70.01
2023-07-09T18:11:49.384Z,69.62
2023-07-09T18:14:26.482Z,69.42
2023-07-09T18:16:54.035Z,69.71
2023-07-09T18:19:29.019Z,69.97
2023-07-09T18:21:56.984Z,70.13
2023-07-09T18:24:23.946Z,70.02
2023-07-09T18:26:51.094Z,70.06
2023-07-09T18:29:35.688Z,70.15
2023-07-09T18:32:04.387Z,70.49
2023-07-09T18:34:32.652Z,70.32
2023-07-09T18:37:03.476Z,70.59
2023-07-09T18:39:30.869Z,69.51
2023-07-09T18:41:58.171Z,69.06
2023-07-09T18:44:25.351Z,68.80
2023-07-09T18:46:52.618Z,69.64
2023-07-09T18:49:19.716Z,70.17
2023-07-09T18:51:46.984Z,69.07
2023-07-09T18:54:22.913Z,70.19
2023-07-09T18:56:50.123Z,70.26
2023-07-09T18:59:22.354Z,70.06
2023-07-09T19:01:50.196Z,70.27
2023-07-09T19:04:19.698Z,71.14
2023-07-09T19:06:48.053Z,71.51
2023-07-09T19:09:23.717Z,71.56
2023-07-09T19:12:05.762Z,71.66
2023-07-09T19:14:34.235Z,71.43
2023-07-09T19:17:05.508Z,72.19
2023-07-09T19:19:39.716Z,72.29
2023-07-09T19:22:12.673Z,71.99
2023-07-09T19:24:40.527Z,72.38
2023-07-09T19:27:07.817Z,72.33
2023-07-09T19:29:38.519Z,72.97
2023-07-09T19:32:28.987Z,73.52
2023-07-09T19:34:55.953Z,73.24
2023-07-09T19:37:25.315Z,73.27
2023-07-09T19:39:52.400Z,73.66
2023-07-09T19:42:22.783Z,74.15
2023-07-09T19:44:51.057Z,74.51
2023-07-09T19:47:23.593Z,74.74
2023-07-09T19:49:52.069Z,75.29
2023-07-09T19:52:19.100Z,75.58
2023-07-09T19:54:46.722Z,75.63
2023-07-09T19:57:14.757Z,76.24
2023-07-09T19:59:41.863Z,76.66
2023-07-09T20:02:19.685Z,77.07
2023-07-09T20:04:47.056Z,76.64
2023-07-09T20:07:14.144Z,76.87
2023-07-09T20:09:41.401Z,77.18
2023-07-09T20:12:31.210Z,77.47
2023-07-09T20:14:58.102Z,77.51
2023-07-09T20:17:24.967Z,76.97
2023-07-09T20:19:51.838Z,78.37
2023-07-09T20:22:23.276Z,78.07
2023-07-09T20:24:50.117Z,78.23
2023-07-09T20:27:18.578Z,78.50
2023-07-09T20:29:45.923Z,78.84
2023-07-09T20:32:18.161Z,79.36
2023-07-09T20:34:46.175Z,79.55
2023-07-09T20:37:13.227Z,79.91
2023-07-09T20:39:40.433Z,79.73
2023-07-09T20:42:10.059Z,79.70
2023-07-09T20:44:38.002Z,79.70
2023-07-09T20:47:15.161Z,79.93
2023-07-09T20:49:43.455Z,80.75
2023-07-09T20:52:11.654Z,79.81
2023-07-09T20:54:39.034Z,80.11
2023-07-09T20:57:20.330Z,80.60
2023-07-09T20:59:48.122Z,80.51
2023-07-09T21:02:19.242Z,80.47
2023-07-09T21:04:46.138Z,79.62
2023-07-09T21:07:13.068Z,80.81
2023-07-09T21:09:40.241Z,80.85
2023-07-09T21:12:15.294Z,81.27
2023-07-09T21:14:43.281Z,81.43
2023-07-09T21:17:24.008Z,81.43
2023-07-09T21:19:52.084Z,82.23
2023-07-09T21:22:19.462Z,81.83
2023-07-09T21:24:50.701Z,82.26
2023-07-09T21:27:18.619Z,82.75
2023-07-09T21:29:45.589Z,83.34
2023-07-09T21:32:28.082Z,83.25
2023-07-09T21:34:57.935Z,82.47
2023-07-09T21:37:24.915Z,83.19
2023-07-09T21:39:52.110Z,83.60
2023-07-09T21:42:19.166Z,82.71
2023-07-09T21:44:46.084Z,83.04
2023-07-09T21:47:18.699Z,83.71
2023-07-09T21:49:45.871Z,83.06
2023-07-09T21:52:21.645Z,83.85
2023-07-09T21:57:23.058Z,84.50
2023-07-09T21:59:50.143Z,83.89
2023-07-09T22:02:27.524Z,83.24
2023-07-09T22:04:55.687Z,83.66
2023-07-09T22:07:24.162Z,83.52
2023-07-09T22:09:54.328Z,83.49
2023-07-09T22:12:22.233Z,83.27
2023-07-09T22:14:55.148Z,83.32
2023-07-09T22:17:27.671Z,82.99
2023-07-09T22:19:58.548Z,83.89
2023-07-09T22:22:26.558Z,82.77
2023-07-09T22:24:53.817Z,83.29
2023-07-09T22:27:20.828Z,83.54
2023-07-09T22:29:47.742Z,83.30
2023-07-09T22:32:20.754Z,83.04
2023-07-09T22:34:47.789Z,83.04
2023-07-09T22:37:17.366Z,82.53
2023-07-09T22:39:44.288Z,83.24
2023-07-09T22:42:11.302Z,83.16
2023-07-09T22:44:38.457Z,83.26
2023-07-09T22:47:06.235Z,82.56
2023-07-09T22:49:33.781Z,83.11
2023-07-09T22:52:01.242Z,82.69
2023-07-09T22:54:28.320Z,82.42
2023-07-09T22:56:55.478Z,82.31
2023-07-09T22:59:22.348Z,82.58
2023-07-09T23:01:50.675Z,81.64
2023-07-09T23:04:18.179Z,81.70
2023-07-09T23:06:45.399Z,81.88
2023-07-09T23:09:12.251Z,81.04
2023-07-09T23:11:41.777Z,80.70
2023-07-09T23:14:29.705Z,80.52
2023-07-09T23:16:57.005Z,79.88
2023-07-09T23:19:29.550Z,80.06
2023-07-09T23:22:04.442Z,79.03
2023-07-09T23:24:31.378Z,80.06
2023-07-09T23:26:58.332Z,79.74
2023-07-09T23:29:25.353Z,79.69
2023-07-09T23:31:52.257Z,79.43
2023-07-09T23:34:20.484Z,79.51
2023-07-09T23:36:48.377Z,78.59
2023-07-09T23:39:15.824Z,79.18
2023-07-09T23:41:45.277Z,78.36
2023-07-09T23:44:21.290Z,78.60
2023-07-09T23:46:48.276Z,78.74
2023-07-09T23:49:24.859Z,78.10
2023-07-09T23:51:52.158Z,77.26
2023-07-09T23:54:19.109Z,76.99
2023-07-09T23:56:48.053Z,77.23
2023-07-09T23:59:18.278Z,77.39
